Freeland, Washington
Current Conditions -  °F | °C
As of 5:18 AM on Saturday 25 Oct 2014 (Local Time) from KPAE Reporting Station
Haze Haze  
Wind Chill: 45°   Ceiling: Unl
Heat Index: 48°   Visibility: 3mi
Dew Point: 46°   Wind: 6mph
Humidity: 93%   Direction: 20°NNE
Pressure: 29.52"   Gusts: NA
Location:  48.01°N, 122.53°W
Report Text: KPAE 251218Z AUTO 02005KT 3SM BR FEW001 09/08 A2952 RMK AO2 T00890078
Loading
Personal Weather Stations






























Interactive Weather Map
Tropical Storm Tracking
New forecast layout! Learn more

10-Day Weather Forecast

Advertisements
Track Severe Weather on mobile